Time;durP1;ratioP1;P1;durP2;ratioP2;P2;SDS_P1;SDS_P2;PMS_P1;PMS_P2;Temp;Humidity;BMP_temperature;BMP_pressure;BME280_temperature;BME280_humidity;BME280_pressure;Samples;Min_cycle;Max_cycle;Signal;HPM_P1;HPM_P2
2021/09/22 00:02:44;;;;;;;;;;;20.40;48.70;;;;;;8401855;28;19912;-49
2021/09/22 00:06:45;;;;;;;;;;;20.40;48.60;;;;;;8402400;28;19959;-48
2021/09/22 00:10:45;;;;;;;;;;;20.40;48.60;;;;;;8401404;28;19927;-47
2021/09/22 00:14:46;;;;;;;;;;;20.40;48.60;;;;;;8401429;28;19939;-48
2021/09/22 00:18:46;;;;;;;;;;;20.40;48.60;;;;;;8401086;28;19924;-48
2021/09/22 00:22:46;;;;;;;;;;;20.40;48.60;;;;;;8400863;28;20015;-48
2021/09/22 00:26:47;;;;;;;;;;;20.40;48.60;;;;;;8401376;28;19927;-49
2021/09/22 00:30:48;;;;;;;;;;;20.30;48.50;;;;;;8400920;28;19917;-50
2021/09/22 00:34:48;;;;;;;;;;;20.40;48.60;;;;;;8400388;28;19948;-49
2021/09/22 00:38:48;;;;;;;;;;;20.30;48.50;;;;;;8400643;28;19924;-50
2021/09/22 00:42:49;;;;;;;;;;;20.30;48.50;;;;;;8401298;28;19920;-51
2021/09/22 00:46:49;;;;;;;;;;;20.30;48.50;;;;;;8399891;28;20008;-48
2021/09/22 00:50:50;;;;;;;;;;;20.30;48.40;;;;;;8400372;28;19986;-49
2021/09/22 00:54:51;;;;;;;;;;;20.30;48.50;;;;;;8400108;28;19962;-48
2021/09/22 00:58:51;;;;;;;;;;;20.30;48.50;;;;;;8399972;28;19913;-48
2021/09/22 01:02:52;;;;;;;;;;;20.30;48.50;;;;;;8400132;28;19922;-50
2021/09/22 01:06:52;;;;;;;;;;;20.30;48.40;;;;;;8367278;28;19925;-49
2021/09/22 01:10:53;;;;;;;;;;;20.30;48.40;;;;;;8383617;28;20305;-49
2021/09/22 01:14:53;;;;;;;;;;;20.30;48.40;;;;;;8398088;28;19973;-49
2021/09/22 01:18:54;;;;;;;;;;;20.30;48.50;;;;;;8367156;28;20395;-49
2021/09/22 01:22:58;;;;;;;;;;;20.30;48.50;;;;;;8365838;28;19923;-47
2021/09/22 01:26:59;;;;;;;;;;;20.20;48.40;;;;;;8366098;28;19920;-49
2021/09/22 01:31:00;;;;;;;;;;;20.20;48.40;;;;;;8365997;28;20007;-48
2021/09/22 01:35:01;;;;;;;;;;;20.20;48.40;;;;;;8366525;28;19913;-48
2021/09/22 01:39:02;;;;;;;;;;;20.20;48.50;;;;;;8365895;28;19924;-49
2021/09/22 01:43:04;;;;;;;;;;;20.20;48.40;;;;;;8365413;28;19919;-48
2021/09/22 01:47:05;;;;;;;;;;;20.20;48.30;;;;;;8365448;28;19925;-48
2021/09/22 01:51:06;;;;;;;;;;;20.20;48.40;;;;;;8366155;28;19917;-49
2021/09/22 01:55:07;;;;;;;;;;;20.20;48.30;;;;;;8397915;28;19916;-48
2021/09/22 01:59:07;;;;;;;;;;;20.20;48.40;;;;;;8398033;28;19978;-51
2021/09/22 02:03:08;;;;;;;;;;;20.20;48.40;;;;;;8397825;28;19959;-54
2021/09/22 02:07:08;;;;;;;;;;;20.10;48.40;;;;;;8397720;28;19939;-52
2021/09/22 02:11:09;;;;;;;;;;;20.10;48.30;;;;;;8398036;28;19927;-48
2021/09/22 02:15:09;;;;;;;;;;;20.10;48.30;;;;;;8397606;28;19916;-48
2021/09/22 02:19:10;;;;;;;;;;;20.10;48.40;;;;;;8396926;28;19912;-47
2021/09/22 02:23:10;;;;;;;;;;;20.10;48.30;;;;;;8397321;28;19912;-48
2021/09/22 02:27:12;;;;;;;;;;;20.10;48.30;;;;;;8397883;28;19925;-48
2021/09/22 02:31:13;;;;;;;;;;;20.10;48.40;;;;;;8396834;28;19970;-47
2021/09/22 02:35:14;;;;;;;;;;;20.10;48.30;;;;;;8397056;28;19928;-47
2021/09/22 02:39:14;;;;;;;;;;;20.10;48.40;;;;;;8396849;28;20392;-47
2021/09/22 02:43:14;;;;;;;;;;;20.10;48.30;;;;;;8396600;28;19917;-47
2021/09/22 02:47:15;;;;;;;;;;;20.10;48.30;;;;;;8397302;28;19928;-51
2021/09/22 02:51:16;;;;;;;;;;;20.10;48.30;;;;;;8396870;28;20117;-51
2021/09/22 02:55:16;;;;;;;;;;;20.10;48.30;;;;;;8396376;28;20380;-51
2021/09/22 02:59:17;;;;;;;;;;;20.10;48.40;;;;;;8396462;28;19920;-52
2021/09/22 03:03:17;;;;;;;;;;;20.10;48.30;;;;;;8397114;28;19924;-52
2021/09/22 03:07:18;;;;;;;;;;;20.00;48.30;;;;;;8395735;28;19931;-52
2021/09/22 03:11:18;;;;;;;;;;;20.10;48.30;;;;;;8396085;28;20003;-51
2021/09/22 03:15:19;;;;;;;;;;;20.10;48.30;;;;;;8396169;28;20423;-47
2021/09/22 03:19:19;;;;;;;;;;;20.00;48.30;;;;;;8396870;28;20023;-47
2021/09/22 03:23:20;;;;;;;;;;;20.00;48.30;;;;;;8403013;28;20008;-49
2021/09/22 03:27:20;;;;;;;;;;;20.00;48.20;;;;;;8402903;28;20305;-49
2021/09/22 03:31:21;;;;;;;;;;;20.00;48.20;;;;;;8402371;28;19917;-48
2021/09/22 03:35:21;;;;;;;;;;;20.00;48.30;;;;;;8402635;28;19917;-48
2021/09/22 03:39:22;;;;;;;;;;;20.00;48.20;;;;;;8403348;28;19916;-48
2021/09/22 03:43:22;;;;;;;;;;;20.00;48.20;;;;;;8401944;28;20011;-48
2021/09/22 03:47:23;;;;;;;;;;;20.00;48.20;;;;;;8402483;28;19931;-48
2021/09/22 03:51:23;;;;;;;;;;;19.90;48.20;;;;;;8402326;28;19917;-48
2021/09/22 03:55:24;;;;;;;;;;;20.00;48.20;;;;;;8402406;28;19924;-47
2021/09/22 03:59:24;;;;;;;;;;;20.00;48.20;;;;;;8401945;28;20349;-48
2021/09/22 04:03:25;;;;;;;;;;;20.00;48.20;;;;;;8400794;28;19919;-48
2021/09/22 04:07:25;;;;;;;;;;;19.90;48.10;;;;;;8401182;28;19931;-50
2021/09/22 04:11:26;;;;;;;;;;;19.90;48.10;;;;;;8402584;28;19927;-48
2021/09/22 04:15:26;;;;;;;;;;;19.90;48.10;;;;;;8401451;28;19916;-48
2021/09/22 04:19:27;;;;;;;;;;;19.90;48.10;;;;;;8400939;28;19917;-47
2021/09/22 04:23:27;;;;;;;;;;;19.90;48.20;;;;;;8401247;28;19917;-47
2021/09/22 04:27:28;;;;;;;;;;;19.90;48.10;;;;;;8400775;28;20297;-47
2021/09/22 04:31:28;;;;;;;;;;;19.90;48.10;;;;;;8400391;28;20007;-47
2021/09/22 04:35:30;;;;;;;;;;;19.90;48.10;;;;;;8400945;28;19924;-46
2021/09/22 04:39:31;;;;;;;;;;;19.90;48.10;;;;;;8400883;28;19919;-48
2021/09/22 04:43:31;;;;;;;;;;;19.90;48.10;;;;;;8400165;28;19916;-48
2021/09/22 04:47:32;;;;;;;;;;;19.80;48.00;;;;;;8400958;28;19924;-47
2021/09/22 04:51:32;;;;;;;;;;;19.80;48.00;;;;;;8400434;28;20011;-47
2021/09/22 04:55:33;;;;;;;;;;;19.80;48.00;;;;;;8399803;28;19916;-48
2021/09/22 04:59:33;;;;;;;;;;;19.80;48.00;;;;;;8400180;28;19916;-48
2021/09/22 05:03:34;;;;;;;;;;;19.80;48.00;;;;;;8400105;28;19924;-47
2021/09/22 05:07:34;;;;;;;;;;;19.80;48.10;;;;;;8399655;28;20340;-48
2021/09/22 05:11:36;;;;;;;;;;;19.80;48.00;;;;;;8399609;28;19927;-47
2021/09/22 05:15:36;;;;;;;;;;;19.80;48.10;;;;;;8399912;28;19966;-47
2021/09/22 05:19:37;;;;;;;;;;;19.80;48.00;;;;;;8399004;28;20058;-48
2021/09/22 05:23:37;;;;;;;;;;;19.80;48.00;;;;;;8399734;28;19912;-50
2021/09/22 05:27:38;;;;;;;;;;;19.70;48.00;;;;;;8398832;28;20297;-50
2021/09/22 05:31:38;;;;;;;;;;;19.80;48.00;;;;;;8398306;28;20350;-47
2021/09/22 05:35:39;;;;;;;;;;;19.70;47.90;;;;;;8398714;28;20082;-48
2021/09/22 05:39:39;;;;;;;;;;;19.70;48.00;;;;;;8399427;28;20007;-48
2021/09/22 05:43:40;;;;;;;;;;;19.70;48.00;;;;;;8397810;28;19948;-48
2021/09/22 05:47:40;;;;;;;;;;;19.70;48.00;;;;;;8398064;28;19929;-49
2021/09/22 05:51:41;;;;;;;;;;;19.70;47.90;;;;;;8398315;28;19917;-49
2021/09/22 05:55:41;;;;;;;;;;;19.70;48.00;;;;;;8397616;28;19923;-48
2021/09/22 05:59:44;;;;;;;;;;;19.70;48.00;;;;;;8398481;28;19916;-48
2021/09/22 06:03:44;;;;;;;;;;;19.70;48.00;;;;;;8397674;28;19990;-48
2021/09/22 06:07:45;;;;;;;;;;;19.70;48.00;;;;;;8396912;28;19924;-49
2021/09/22 06:11:45;;;;;;;;;;;19.70;48.00;;;;;;8397647;28;19927;-48
2021/09/22 06:15:46;;;;;;;;;;;19.70;48.00;;;;;;8397843;28;19974;-53
2021/09/22 06:19:47;;;;;;;;;;;19.70;47.90;;;;;;8396935;28;20289;-49
2021/09/22 06:23:52;;;;;;;;;;;19.80;47.80;;;;;;8397031;28;19923;-49
2021/09/22 06:27:53;;;;;;;;;;;19.90;47.60;;;;;;8400006;28;20297;-49
2021/09/22 06:31:55;;;;;;;;;;;19.90;47.40;;;;;;8397350;28;19926;-48
2021/09/22 06:35:59;;;;;;;;;;;19.90;47.40;;;;;;8396801;28;19916;-49
2021/09/22 06:40:00;;;;;;;;;;;19.90;47.40;;;;;;8396841;28;19917;-48
2021/09/22 06:44:01;;;;;;;;;;;19.90;47.60;;;;;;8396388;28;20296;-48
2021/09/22 06:48:02;;;;;;;;;;;19.80;47.60;;;;;;8396501;28;19968;-48
2021/09/22 06:52:02;;;;;;;;;;;19.80;47.60;;;;;;8396867;28;19916;-49
2021/09/22 06:56:03;;;;;;;;;;;19.80;47.70;;;;;;8396142;28;20413;-50
2021/09/22 07:00:04;;;;;;;;;;;19.80;47.70;;;;;;8396237;28;20008;-49
2021/09/22 07:04:05;;;;;;;;;;;19.80;47.70;;;;;;8395136;28;19962;-48
2021/09/22 07:08:05;;;;;;;;;;;19.70;47.70;;;;;;8396625;28;20451;-48
2021/09/22 07:12:06;;;;;;;;;;;19.70;47.70;;;;;;8396260;28;20385;-48
2021/09/22 07:16:10;;;;;;;;;;;19.70;47.80;;;;;;8395725;28;20383;-51
2021/09/22 07:20:10;;;;;;;;;;;19.70;47.80;;;;;;8396192;28;19916;-50
2021/09/22 07:24:11;;;;;;;;;;;19.70;47.80;;;;;;8396007;28;19935;-48
2021/09/22 07:28:12;;;;;;;;;;;19.70;47.70;;;;;;8396307;28;19928;-48
2021/09/22 07:32:12;;;;;;;;;;;19.70;47.80;;;;;;8395736;28;19916;-49
2021/09/22 07:36:13;;;;;;;;;;;19.80;47.80;;;;;;8395861;28;20010;-50
2021/09/22 07:40:14;;;;;;;;;;;19.70;47.70;;;;;;8395317;28;19917;-49
2021/09/22 07:44:14;;;;;;;;;;;19.70;47.80;;;;;;8396513;28;19916;-49
2021/09/22 07:48:15;;;;;;;;;;;19.70;47.90;;;;;;8395468;28;19924;-49
2021/09/22 07:52:16;;;;;;;;;;;19.70;47.90;;;;;;8394948;28;20016;-49
2021/09/22 07:56:16;;;;;;;;;;;19.70;47.90;;;;;;8395817;28;19923;-49
2021/09/22 08:00:17;;;;;;;;;;;19.70;48.00;;;;;;8395898;28;19923;-49
2021/09/22 08:04:17;;;;;;;;;;;19.70;48.00;;;;;;8394877;28;19967;-49
2021/09/22 08:08:18;;;;;;;;;;;19.70;48.00;;;;;;8398325;28;20266;-48
2021/09/22 08:12:18;;;;;;;;;;;19.70;47.90;;;;;;8401612;28;19982;-48
2021/09/22 08:16:19;;;;;;;;;;;19.70;48.00;;;;;;8400479;28;20483;-48
2021/09/22 08:20:19;;;;;;;;;;;19.70;48.00;;;;;;8402428;28;20304;-48
2021/09/22 08:24:20;;;;;;;;;;;19.70;48.00;;;;;;8401217;28;20366;-49
2021/09/22 08:28:21;;;;;;;;;;;19.80;48.00;;;;;;8400484;28;19976;-48
2021/09/22 08:32:21;;;;;;;;;;;19.80;48.00;;;;;;8400893;28;19970;-48
2021/09/22 08:36:21;;;;;;;;;;;19.80;47.90;;;;;;8401508;28;19920;-49
2021/09/22 08:40:22;;;;;;;;;;;19.80;47.90;;;;;;8400004;28;19916;-48
2021/09/22 08:44:23;;;;;;;;;;;19.80;47.90;;;;;;8400385;28;19923;-47
2021/09/22 08:48:26;;;;;;;;;;;19.80;47.90;;;;;;8400172;28;20011;-50
2021/09/22 08:52:27;;;;;;;;;;;19.80;47.90;;;;;;8399710;28;19913;-47
2021/09/22 08:56:27;;;;;;;;;;;19.80;47.90;;;;;;8400148;28;19920;-48
2021/09/22 09:00:28;;;;;;;;;;;19.80;47.90;;;;;;8399614;28;19917;-49
2021/09/22 09:04:28;;;;;;;;;;;19.80;47.90;;;;;;8397626;28;19986;-51
2021/09/22 09:08:29;;;;;;;;;;;19.80;47.80;;;;;;8395247;28;20397;-49
2021/09/22 09:12:29;;;;;;;;;;;19.90;47.90;;;;;;8367264;28;19947;-48
2021/09/22 09:16:38;;;;;;;;;;;19.90;47.90;;;;;;8365905;28;20366;-49
2021/09/22 09:20:39;;;;;;;;;;;19.90;47.90;;;;;;8366268;28;19952;-47
2021/09/22 09:24:42;;;;;;;;;;;19.90;47.90;;;;;;8365837;28;19924;-48
2021/09/22 09:28:47;;;;;;;;;;;19.90;47.90;;;;;;8366073;28;20404;-49
2021/09/22 09:32:47;;;;;;;;;;;19.90;47.90;;;;;;8399101;28;19916;-48
2021/09/22 09:36:50;;;;;;;;;;;19.90;47.80;;;;;;8398490;28;19923;-48
2021/09/22 09:40:50;;;;;;;;;;;20.00;47.90;;;;;;8398235;28;19939;-48
2021/09/22 09:44:53;;;;;;;;;;;20.00;47.90;;;;;;8398686;28;19917;-48
2021/09/22 09:48:55;;;;;;;;;;;20.00;47.80;;;;;;8399267;28;19927;-50
2021/09/22 09:52:56;;;;;;;;;;;20.00;47.80;;;;;;8397784;28;20302;-48
2021/09/22 09:57:08;;;;;;;;;;;20.00;47.90;;;;;;8398482;28;19917;-47
2021/09/22 10:01:08;;;;;;;;;;;20.00;47.90;;;;;;8396255;28;20333;-48
2021/09/22 10:05:09;;;;;;;;;;;20.00;47.80;;;;;;8365533;28;19921;-50
2021/09/22 10:09:11;;;;;;;;;;;20.00;47.80;;;;;;8364713;28;19949;-52
2021/09/22 10:13:12;;;;;;;;;;;20.00;47.80;;;;;;8364113;28;20369;-50
2021/09/22 10:17:16;;;;;;;;;;;20.00;47.80;;;;;;8364949;28;20472;-51
2021/09/22 10:21:18;;;;;;;;;;;20.10;47.80;;;;;;8364620;28;20316;-48
2021/09/22 10:25:22;;;;;;;;;;;20.10;47.80;;;;;;8364559;28;20362;-51
2021/09/22 10:29:26;;;;;;;;;;;20.10;47.80;;;;;;8363795;28;19916;-50
2021/09/22 10:33:28;;;;;;;;;;;20.10;47.70;;;;;;8364162;28;19925;-49
2021/09/22 10:37:30;;;;;;;;;;;20.10;47.70;;;;;;8363534;28;20011;-50
2021/09/22 10:41:32;;;;;;;;;;;20.10;47.70;;;;;;8364453;28;19913;-49
2021/09/22 10:45:33;;;;;;;;;;;20.10;47.70;;;;;;8363794;28;19935;-49
2021/09/22 10:49:37;;;;;;;;;;;20.10;47.70;;;;;;8363232;28;20293;-49
2021/09/22 10:53:42;;;;;;;;;;;20.20;47.70;;;;;;8363358;28;19948;-50
2021/09/22 10:57:44;;;;;;;;;;;20.20;47.70;;;;;;8363476;28;19927;-48
2021/09/22 11:01:44;;;;;;;;;;;20.20;47.70;;;;;;8363681;28;20372;-51
2021/09/22 11:05:45;;;;;;;;;;;20.20;47.70;;;;;;8362891;28;19996;-48
2021/09/22 11:09:46;;;;;;;;;;;20.20;47.70;;;;;;8363509;28;19929;-48
2021/09/22 11:13:47;;;;;;;;;;;20.20;47.60;;;;;;8362634;28;20050;-48
2021/09/22 11:17:48;;;;;;;;;;;20.20;47.90;;;;;;8364046;28;19919;-48
2021/09/22 11:21:48;;;;;;;;;;;20.30;47.70;;;;;;8362969;28;19917;-48
2021/09/22 11:25:49;;;;;;;;;;;20.30;47.70;;;;;;8362504;28;19924;-49
2021/09/22 11:29:52;;;;;;;;;;;20.30;47.70;;;;;;8363364;28;19917;-48
2021/09/22 11:33:58;;;;;;;;;;;20.30;47.70;;;;;;8362918;28;20016;-48
2021/09/22 11:37:59;;;;;;;;;;;20.30;47.60;;;;;;8363109;28;19920;-47
2021/09/22 11:42:00;;;;;;;;;;;20.30;47.60;;;;;;8365743;28;19916;-48
2021/09/22 11:46:02;;;;;;;;;;;20.30;47.60;;;;;;8369148;28;19932;-49
2021/09/22 11:50:02;;;;;;;;;;;20.30;47.60;;;;;;8369151;28;19917;-49
2021/09/22 11:54:15;;;;;;;;;;;20.30;47.70;;;;;;8369763;28;19913;-50
2021/09/22 11:58:21;;;;;;;;;;;20.40;47.70;;;;;;8368584;28;20047;-52
2021/09/22 12:02:23;;;;;;;;;;;20.40;47.70;;;;;;8368661;28;19956;-51
2021/09/22 12:06:24;;;;;;;;;;;20.40;47.60;;;;;;8368734;28;20332;-50
2021/09/22 12:10:25;;;;;;;;;;;20.40;47.70;;;;;;8368538;28;19970;-51
2021/09/22 12:14:26;;;;;;;;;;;20.40;47.70;;;;;;8369258;28;19955;-49
2021/09/22 12:18:26;;;;;;;;;;;20.40;47.60;;;;;;8368611;28;20317;-50
2021/09/22 12:22:28;;;;;;;;;;;20.40;47.80;;;;;;8367851;28;19927;-50
2021/09/22 12:26:30;;;;;;;;;;;20.50;47.70;;;;;;8387799;28;22285;-50
2021/09/22 12:30:35;;;;;;;;;;;20.50;47.60;;;;;;8402070;28;19934;-49
2021/09/22 12:34:45;;;;;;;;;;;20.50;47.60;;;;;;8369532;28;19943;-50
2021/09/22 12:38:47;;;;;;;;;;;20.50;47.60;;;;;;8367986;28;19916;-48
2021/09/22 12:42:48;;;;;;;;;;;20.50;48.10;;;;;;8367824;28;20007;-50
2021/09/22 12:46:49;;;;;;;;;;;20.50;47.60;;;;;;8367029;28;20378;-51
2021/09/22 12:50:50;;;;;;;;;;;20.60;47.60;;;;;;8368304;28;20427;-49
2021/09/22 12:54:50;;;;;;;;;;;20.60;47.60;;;;;;8366468;28;19939;-52
2021/09/22 12:58:51;;;;;;;;;;;20.50;47.50;;;;;;8366599;28;19917;-51
2021/09/22 13:03:05;;;;;;;;;;;20.60;47.60;;;;;;8366970;28;19928;-50
2021/09/22 13:07:07;;;;;;;;;;;20.60;47.50;;;;;;8376794;28;20383;-48
2021/09/22 13:11:08;;;;;;;;;;;20.60;47.50;;;;;;8400378;28;19920;-50
2021/09/22 13:15:23;;;;;;;;;;;20.60;47.50;;;;;;8399900;28;19949;-51
2021/09/22 13:19:24;;;;;;;;;;;20.60;47.50;;;;;;8399389;28;19917;-49
2021/09/22 13:23:25;;;;;;;;;;;20.60;47.60;;;;;;8399510;28;19916;-49
2021/09/22 13:27:25;;;;;;;;;;;20.60;47.50;;;;;;8400287;28;20438;-49
2021/09/22 13:31:26;;;;;;;;;;;20.60;47.50;;;;;;8398725;28;19917;-50
2021/09/22 13:35:26;;;;;;;;;;;20.60;47.50;;;;;;8399232;28;19999;-52
2021/09/22 13:39:27;;;;;;;;;;;20.60;47.50;;;;;;8399056;28;19920;-51
2021/09/22 13:43:29;;;;;;;;;;;20.60;47.50;;;;;;8399058;28;19916;-49
2021/09/22 13:47:29;;;;;;;;;;;20.60;47.50;;;;;;8398748;28;19930;-48
2021/09/22 13:51:30;;;;;;;;;;;20.60;47.50;;;;;;8398689;28;20392;-48
2021/09/22 13:55:30;;;;;;;;;;;20.60;47.60;;;;;;8398269;28;19923;-48
2021/09/22 13:59:31;;;;;;;;;;;20.60;47.60;;;;;;8398375;28;19919;-48
2021/09/22 14:03:32;;;;;;;;;;;20.60;47.60;;;;;;8399314;28;20015;-47
2021/09/22 14:07:33;;;;;;;;;;;20.60;47.60;;;;;;8396874;28;19979;-47
2021/09/22 14:11:33;;;;;;;;;;;20.60;47.60;;;;;;8398294;28;19920;-47
2021/09/22 14:15:35;;;;;;;;;;;20.60;47.60;;;;;;8397835;28;19913;-47
2021/09/22 14:19:35;;;;;;;;;;;20.60;47.50;;;;;;8398186;28;19920;-48
2021/09/22 14:23:36;;;;;;;;;;;20.60;47.50;;;;;;8397325;28;20321;-50
2021/09/22 14:27:36;;;;;;;;;;;20.60;47.60;;;;;;8396959;28;19920;-47
2021/09/22 14:31:37;;;;;;;;;;;20.60;47.50;;;;;;8396999;28;20390;-50
2021/09/22 14:35:38;;;;;;;;;;;20.60;47.50;;;;;;8398337;28;20277;-48
2021/09/22 14:39:39;;;;;;;;;;;20.60;47.50;;;;;;8397539;28;20266;-47
2021/09/22 14:43:39;;;;;;;;;;;20.60;47.50;;;;;;8396776;28;19959;-49
2021/09/22 14:47:40;;;;;;;;;;;20.60;47.60;;;;;;8397434;28;19924;-51
2021/09/22 14:51:41;;;;;;;;;;;20.60;47.50;;;;;;8396966;28;19921;-49
2021/09/22 14:55:41;;;;;;;;;;;20.60;47.50;;;;;;8397378;28;19959;-49
2021/09/22 14:59:42;;;;;;;;;;;20.60;47.50;;;;;;8397374;28;19916;-51
2021/09/22 15:03:43;;;;;;;;;;;20.60;47.50;;;;;;8396797;28;20022;-49
2021/09/22 15:07:44;;;;;;;;;;;20.60;47.50;;;;;;8396149;28;19924;-50
2021/09/22 15:11:44;;;;;;;;;;;20.70;47.50;;;;;;8397773;28;19920;-52
2021/09/22 15:15:44;;;;;;;;;;;20.70;47.50;;;;;;8396204;28;19969;-50
2021/09/22 15:19:45;;;;;;;;;;;20.60;47.40;;;;;;8396176;28;19921;-49
2021/09/22 15:23:45;;;;;;;;;;;20.60;47.40;;;;;;8396551;28;20494;-49
2021/09/22 15:27:46;;;;;;;;;;;20.70;47.50;;;;;;8396193;28;19924;-48
2021/09/22 15:31:47;;;;;;;;;;;20.60;47.40;;;;;;8396621;28;19916;-48
2021/09/22 15:35:47;;;;;;;;;;;20.60;47.40;;;;;;8396433;28;19920;-51
2021/09/22 15:39:48;;;;;;;;;;;20.60;47.40;;;;;;8390517;28;19995;-49
2021/09/22 15:43:48;;;;;;;;;;;20.60;47.40;;;;;;8390216;28;20389;-52
2021/09/22 15:47:49;;;;;;;;;;;20.60;47.40;;;;;;8393072;28;20008;-49
2021/09/22 15:51:50;;;;;;;;;;;20.60;47.40;;;;;;8389343;28;19962;-51
2021/09/22 15:55:50;;;;;;;;;;;20.60;47.50;;;;;;8384248;28;19920;-50
2021/09/22 15:59:54;;;;;;;;;;;20.60;47.40;;;;;;8388786;28;19917;-51
2021/09/22 16:03:54;;;;;;;;;;;20.60;47.50;;;;;;8391275;28;19916;-47
2021/09/22 16:07:55;;;;;;;;;;;20.60;47.50;;;;;;8390568;28;19935;-53
2021/09/22 16:11:55;;;;;;;;;;;20.60;47.50;;;;;;8373217;28;19998;-53
2021/09/22 16:15:56;;;;;;;;;;;20.60;47.50;;;;;;8362159;28;19913;-49
2021/09/22 16:19:58;;;;;;;;;;;20.60;47.50;;;;;;8360068;28;20369;-48
2021/09/22 16:23:58;;;;;;;;;;;20.70;47.90;;;;;;8388818;28;19922;-50
2021/09/22 16:27:58;;;;;;;;;;;20.60;47.50;;;;;;8369752;28;19924;-51
2021/09/22 16:32:00;;;;;;;;;;;20.60;47.50;;;;;;8370931;28;19917;-54
2021/09/22 16:36:02;;;;;;;;;;;20.60;47.50;;;;;;8395189;28;20277;-51
2021/09/22 16:40:05;;;;;;;;;;;20.60;47.50;;;;;;8368003;28;19917;-50
2021/09/22 16:44:06;;;;;;;;;;;20.60;47.50;;;;;;8367752;28;19963;-50
2021/09/22 16:48:06;;;;;;;;;;;20.60;47.60;;;;;;8365873;28;19925;-49
2021/09/22 16:52:07;;;;;;;;;;;20.60;47.50;;;;;;8367296;28;19920;-49
2021/09/22 16:56:08;;;;;;;;;;;20.60;47.50;;;;;;8367450;28;19913;-48
2021/09/22 17:00:10;;;;;;;;;;;20.60;47.50;;;;;;8391131;28;20345;-51
2021/09/22 17:04:11;;;;;;;;;;;20.60;47.60;;;;;;8374053;28;19919;-48
2021/09/22 17:08:12;;;;;;;;;;;20.60;47.60;;;;;;8366774;28;19925;-50
2021/09/22 17:12:12;;;;;;;;;;;20.60;47.60;;;;;;8366897;28;19925;-52
2021/09/22 17:16:14;;;;;;;;;;;20.60;47.60;;;;;;8367023;28;19966;-51
2021/09/22 17:20:15;;;;;;;;;;;20.60;47.60;;;;;;8366005;28;19917;-48
2021/09/22 17:24:16;;;;;;;;;;;20.60;47.60;;;;;;8366182;28;20003;-48
2021/09/22 17:28:17;;;;;;;;;;;20.60;47.60;;;;;;8365868;28;19951;-52
2021/09/22 17:32:18;;;;;;;;;;;20.60;47.60;;;;;;8367100;28;19913;-50
2021/09/22 17:36:18;;;;;;;;;;;20.60;47.60;;;;;;8365848;28;19959;-50
2021/09/22 17:40:19;;;;;;;;;;;20.60;47.60;;;;;;8364924;28;20366;-50
2021/09/22 17:44:19;;;;;;;;;;;20.60;47.60;;;;;;8365908;28;19917;-51
2021/09/22 17:48:20;;;;;;;;;;;20.60;47.60;;;;;;8372146;28;19925;-50
2021/09/22 17:52:20;;;;;;;;;;;20.60;47.60;;;;;;8365535;28;19920;-51
2021/09/22 17:56:21;;;;;;;;;;;20.60;47.70;;;;;;8365169;28;20404;-53
2021/09/22 18:00:22;;;;;;;;;;;20.60;47.70;;;;;;8374810;28;19917;-49
2021/09/22 18:04:22;;;;;;;;;;;20.60;47.70;;;;;;8364885;28;20000;-49
2021/09/22 18:08:23;;;;;;;;;;;20.50;47.60;;;;;;8365709;28;20365;-49
2021/09/22 18:12:23;;;;;;;;;;;20.60;47.70;;;;;;8364603;28;19921;-50
2021/09/22 18:16:24;;;;;;;;;;;20.60;47.70;;;;;;8362936;28;19967;-49
2021/09/22 18:20:24;;;;;;;;;;;20.60;47.70;;;;;;8364594;28;19920;-49
2021/09/22 18:24:28;;;;;;;;;;;20.50;47.60;;;;;;8365128;28;19921;-52
2021/09/22 18:28:28;;;;;;;;;;;20.50;47.70;;;;;;8363862;28;19947;-53
2021/09/22 18:32:29;;;;;;;;;;;20.50;47.70;;;;;;8364212;28;19917;-50
2021/09/22 18:36:29;;;;;;;;;;;20.50;47.60;;;;;;8386999;28;20007;-49
2021/09/22 18:40:31;;;;;;;;;;;20.50;47.60;;;;;;8423177;28;20281;-49
2021/09/22 18:44:31;;;;;;;;;;;20.50;47.60;;;;;;8364327;28;20004;-51
2021/09/22 18:48:32;;;;;;;;;;;20.50;47.70;;;;;;8363488;28;20303;-49
2021/09/22 18:52:33;;;;;;;;;;;20.50;47.60;;;;;;8361493;28;20269;-49
2021/09/22 18:56:33;;;;;;;;;;;20.50;47.60;;;;;;8362744;28;19924;-48
2021/09/22 19:00:34;;;;;;;;;;;20.50;47.60;;;;;;8391062;28;20428;-48
2021/09/22 19:04:34;;;;;;;;;;;20.50;47.70;;;;;;8365201;28;20011;-50
2021/09/22 19:08:35;;;;;;;;;;;20.50;47.60;;;;;;8363276;28;19948;-50
2021/09/22 19:12:37;;;;;;;;;;;20.50;47.60;;;;;;8362955;28;19921;-49
2021/09/22 19:16:37;;;;;;;;;;;20.50;47.60;;;;;;8386150;28;19948;-52
2021/09/22 19:20:38;;;;;;;;;;;20.50;47.60;;;;;;8387185;28;19935;-48
2021/09/22 19:24:38;;;;;;;;;;;20.50;47.60;;;;;;8386546;28;19916;-48
2021/09/22 19:28:39;;;;;;;;;;;20.50;47.60;;;;;;8377048;28;19925;-48
2021/09/22 19:32:40;;;;;;;;;;;20.50;47.60;;;;;;8362967;28;19916;-49
2021/09/22 19:36:40;;;;;;;;;;;20.50;47.60;;;;;;8363547;28;19917;-49
2021/09/22 19:40:41;;;;;;;;;;;20.50;47.60;;;;;;8362535;28;19917;-48
2021/09/22 19:44:41;;;;;;;;;;;20.50;47.70;;;;;;8362884;28;19944;-48
2021/09/22 19:48:44;;;;;;;;;;;20.50;47.60;;;;;;8362704;28;19932;-49
2021/09/22 19:52:45;;;;;;;;;;;20.50;47.70;;;;;;8362940;28;20362;-52
2021/09/22 19:56:46;;;;;;;;;;;20.40;47.60;;;;;;8362366;28;19974;-47
2021/09/22 20:00:48;;;;;;;;;;;20.40;47.60;;;;;;8362591;28;20304;-49
2021/09/22 20:04:48;;;;;;;;;;;20.40;47.60;;;;;;8368076;28;20008;-51
2021/09/22 20:08:48;;;;;;;;;;;20.40;47.60;;;;;;8368682;28;19975;-49
2021/09/22 20:12:49;;;;;;;;;;;20.40;47.60;;;;;;8369392;28;19924;-50
2021/09/22 20:16:49;;;;;;;;;;;20.40;47.60;;;;;;8368254;28;20027;-50
2021/09/22 20:20:50;;;;;;;;;;;20.40;47.60;;;;;;8368733;28;20316;-49
2021/09/22 20:24:50;;;;;;;;;;;20.40;47.60;;;;;;8368362;28;19913;-49
2021/09/22 20:28:51;;;;;;;;;;;20.40;47.60;;;;;;8367283;28;19931;-49
2021/09/22 20:32:52;;;;;;;;;;;20.40;47.60;;;;;;8366712;28;20332;-48
2021/09/22 20:36:53;;;;;;;;;;;20.40;47.60;;;;;;8367989;28;19913;-49
2021/09/22 20:40:54;;;;;;;;;;;20.40;47.60;;;;;;8367354;28;19923;-50
2021/09/22 20:44:54;;;;;;;;;;;20.30;47.60;;;;;;8368204;28;19913;-47
2021/09/22 20:48:56;;;;;;;;;;;20.40;47.70;;;;;;8400591;28;19932;-49
2021/09/22 20:52:56;;;;;;;;;;;20.40;47.60;;;;;;8400105;28;19920;-48
2021/09/22 20:56:57;;;;;;;;;;;20.30;47.60;;;;;;8400410;28;19944;-49
2021/09/22 21:00:59;;;;;;;;;;;20.30;47.60;;;;;;8400360;28;19995;-48
2021/09/22 21:05:00;;;;;;;;;;;20.30;47.60;;;;;;8400705;28;19996;-49
2021/09/22 21:09:00;;;;;;;;;;;20.30;47.60;;;;;;8400366;28;19924;-49
2021/09/22 21:13:01;;;;;;;;;;;20.30;47.60;;;;;;8399764;28;19917;-49
2021/09/22 21:17:01;;;;;;;;;;;20.30;47.60;;;;;;8432475;28;19916;-48
2021/09/22 21:21:02;;;;;;;;;;;20.30;47.60;;;;;;8433843;28;19934;-47
2021/09/22 21:25:03;;;;;;;;;;;20.30;47.60;;;;;;8432623;28;20266;-48
2021/09/22 21:29:03;;;;;;;;;;;20.30;47.60;;;;;;8432821;28;19916;-48
2021/09/22 21:33:04;;;;;;;;;;;20.30;47.60;;;;;;8433028;28;19951;-51
2021/09/22 21:37:04;;;;;;;;;;;20.30;47.70;;;;;;8432150;28;19934;-48
2021/09/22 21:41:05;;;;;;;;;;;20.30;47.70;;;;;;8433061;28;20326;-48
2021/09/22 21:45:05;;;;;;;;;;;20.30;47.70;;;;;;8432511;28;20293;-48
2021/09/22 21:49:06;;;;;;;;;;;20.30;47.70;;;;;;8431633;28;20014;-47
2021/09/22 21:53:07;;;;;;;;;;;20.30;47.70;;;;;;8432097;28;20006;-48
2021/09/22 21:57:07;;;;;;;;;;;20.30;47.70;;;;;;8432977;28;19912;-47
2021/09/22 22:01:08;;;;;;;;;;;20.30;47.60;;;;;;8429551;28;20022;-49
2021/09/22 22:05:09;;;;;;;;;;;20.30;47.70;;;;;;8379994;28;19971;-48
2021/09/22 22:09:12;;;;;;;;;;;20.20;47.60;;;;;;8365246;28;20549;-48
2021/09/22 22:13:12;;;;;;;;;;;20.20;47.70;;;;;;8364230;28;20379;-47
2021/09/22 22:17:12;;;;;;;;;;;20.20;47.60;;;;;;8364847;28;19955;-48
2021/09/22 22:21:13;;;;;;;;;;;20.20;47.60;;;;;;8364782;28;19959;-47
2021/09/22 22:25:16;;;;;;;;;;;20.20;47.60;;;;;;8363315;28;19916;-47
2021/09/22 22:29:16;;;;;;;;;;;20.20;47.60;;;;;;8364622;28;19929;-48
2021/09/22 22:33:17;;;;;;;;;;;20.20;47.60;;;;;;8365144;28;19943;-46
2021/09/22 22:37:20;;;;;;;;;;;20.20;47.60;;;;;;8363876;28;19963;-48
2021/09/22 22:41:20;;;;;;;;;;;20.20;47.60;;;;;;8364298;28;19916;-49
2021/09/22 22:45:21;;;;;;;;;;;20.20;47.60;;;;;;8363906;28;20011;-48
2021/09/22 22:49:21;;;;;;;;;;;20.20;47.60;;;;;;8364049;28;19912;-49
2021/09/22 22:53:22;;;;;;;;;;;20.10;47.50;;;;;;8363848;28;19939;-48
2021/09/22 22:57:22;;;;;;;;;;;20.20;47.60;;;;;;8363577;28;20374;-50
2021/09/22 23:01:23;;;;;;;;;;;20.20;47.60;;;;;;8363171;28;19939;-50
2021/09/22 23:05:23;;;;;;;;;;;20.10;47.60;;;;;;8363989;28;19996;-48
2021/09/22 23:09:24;;;;;;;;;;;20.10;47.50;;;;;;8364205;28;19928;-48
2021/09/22 23:13:24;;;;;;;;;;;20.10;47.60;;;;;;8362768;28;19916;-49
2021/09/22 23:18:07;;;;;;;;;;;20.10;47.50;;;;;;8363123;28;20370;-48
2021/09/22 23:22:00;;;;;;;;;;;20.10;47.60;;;;;;8360128;28;19921;-49